createdAt,value
2023-03-25T00:00:32.924Z,9.20
2023-03-25T00:03:00.703Z,9.30
2023-03-25T00:05:28.222Z,9.20
2023-03-25T00:07:55.636Z,9.20
2023-03-25T00:10:23.184Z,9.90
2023-03-25T00:12:51.748Z,9.20
2023-03-25T00:15:19.728Z,9.20
2023-03-25T00:17:47.356Z,9.20
2023-03-25T00:20:14.969Z,9.20
2023-03-25T00:22:44.283Z,9.20
2023-03-25T00:25:19.124Z,9.20
2023-03-25T00:27:49.102Z,9.20
2023-03-25T00:30:17.918Z,9.10
2023-03-25T00:32:49.947Z,9.40
2023-03-25T00:35:24.316Z,10.70
2023-03-25T00:37:57.912Z,9.10
2023-03-25T00:40:29.638Z,9.20
2023-03-25T00:43:00.023Z,9.10
2023-03-25T00:45:28.524Z,8.80
2023-03-25T00:47:56.378Z,9.10
2023-03-25T00:50:25.860Z,9.90
2023-03-25T00:52:54.532Z,9.10
2023-03-25T00:57:49.587Z,9.10
2023-03-25T01:00:18.766Z,9.20
2023-03-25T01:02:46.311Z,8.90
2023-03-25T01:05:13.719Z,9.30
2023-03-25T01:07:42.046Z,9.20
2023-03-25T01:10:09.994Z,9.00
2023-03-25T01:15:05.871Z,9.00
2023-03-25T01:17:33.310Z,9.00
2023-03-25T01:20:00.635Z,9.10
2023-03-25T01:22:28.072Z,8.90
2023-03-25T01:24:55.433Z,8.90
2023-03-25T01:27:24.687Z,8.80
2023-03-25T01:29:54.548Z,8.80
2023-03-25T01:32:21.907Z,8.80
2023-03-25T01:34:49.648Z,9.00
2023-03-25T01:37:18.179Z,9.30
2023-03-25T01:39:45.772Z,9.00
2023-03-25T01:42:13.121Z,8.80
2023-03-25T01:44:41.127Z,9.70
2023-03-25T01:47:08.929Z,8.80
2023-03-25T01:49:44.235Z,8.90
2023-03-25T01:52:18.126Z,8.80
2023-03-25T01:54:47.311Z,8.70
2023-03-25T01:57:20.586Z,8.70
2023-03-25T01:59:49.601Z,8.90
2023-03-25T02:02:18.771Z,8.90
2023-03-25T02:04:58.774Z,8.90
2023-03-25T02:07:34.331Z,8.70
2023-03-25T02:10:06.703Z,8.60
2023-03-25T02:12:34.013Z,8.70
2023-03-25T02:15:06.424Z,8.70
2023-03-25T02:18:02.768Z,8.70
2023-03-25T02:21:02.958Z,8.60
2023-03-25T02:23:58.395Z,8.60
2023-03-25T02:26:45.186Z,8.70
2023-03-25T02:29:24.150Z,9.70
2023-03-25T02:32:29.038Z,8.90
2023-03-25T02:35:11.536Z,8.70
2023-03-25T02:38:06.303Z,8.70
2023-03-25T02:41:01.549Z,8.60
2023-03-25T02:43:39.977Z,8.40
2023-03-25T02:46:15.674Z,9.00
2023-03-25T02:48:51.649Z,8.90
2023-03-25T02:51:27.323Z,8.60
2023-03-25T02:53:58.469Z,8.80
2023-03-25T02:56:32.787Z,9.40
2023-03-25T02:59:03.829Z,9.10
2023-03-25T03:01:35.155Z,9.10
2023-03-25T03:04:12.919Z,8.80
2023-03-25T03:06:43.103Z,9.20
2023-03-25T03:09:25.650Z,9.10
2023-03-25T03:12:12.741Z,8.80
2023-03-25T03:15:07.448Z,8.80
2023-03-25T03:17:56.213Z,8.70
2023-03-25T03:20:44.105Z,8.90
2023-03-25T03:23:21.050Z,8.80
2023-03-25T03:25:53.488Z,8.80
2023-03-25T03:28:55.402Z,8.90
2023-03-25T03:31:48.272Z,8.80
2023-03-25T03:34:48.376Z,8.70
2023-03-25T03:37:20.892Z,8.60
2023-03-25T03:39:49.689Z,8.90
2023-03-25T03:42:31.031Z,8.60
2023-03-25T03:45:07.471Z,8.60
2023-03-25T03:47:41.875Z,9.30
2023-03-25T03:50:14.497Z,8.80
2023-03-25T03:52:47.348Z,8.80
2023-03-25T03:55:21.209Z,8.80
2023-03-25T03:57:58.007Z,8.80
2023-03-25T04:00:43.119Z,8.60
2023-03-25T04:03:24.563Z,8.60
2023-03-25T04:06:08.022Z,9.20
2023-03-25T04:08:47.014Z,9.30
2023-03-25T04:11:22.497Z,8.60
2023-03-25T04:13:53.927Z,9.00
2023-03-25T04:16:23.250Z,9.20
2023-03-25T04:18:53.507Z,8.40
2023-03-25T04:21:21.902Z,10.50
2023-03-25T04:23:49.911Z,9.40
2023-03-25T04:26:17.714Z,8.90
2023-03-25T04:28:45.314Z,8.50
2023-03-25T04:31:15.747Z,8.60
2023-03-25T04:33:48.642Z,8.60
2023-03-25T04:41:15.104Z,8.60
2023-03-25T04:43:45.120Z,8.60
2023-03-25T04:46:15.170Z,8.60
2023-03-25T04:48:45.118Z,8.50
2023-03-25T04:51:14.077Z,8.50
2023-03-25T04:53:42.957Z,8.80
2023-03-25T04:56:16.290Z,8.50
2023-03-25T04:58:44.781Z,8.40
2023-03-25T05:01:30.475Z,9.70
2023-03-25T05:04:06.889Z,8.50
2023-03-25T05:06:38.418Z,8.90
2023-03-25T05:09:07.968Z,8.60
2023-03-25T05:11:41.954Z,8.70
2023-03-25T05:14:11.278Z,9.00
2023-03-25T05:16:39.398Z,8.70
2023-03-25T05:19:07.789Z,8.80
2023-03-25T05:21:36.382Z,8.70
2023-03-25T05:24:08.278Z,8.80
2023-03-25T05:26:36.805Z,8.80
2023-03-25T05:29:06.333Z,8.80
2023-03-25T05:31:34.159Z,8.90
2023-03-25T05:34:02.189Z,9.00
2023-03-25T05:36:29.683Z,9.00
2023-03-25T05:38:58.292Z,9.10
2023-03-25T05:41:38.761Z,9.20
2023-03-25T05:44:08.197Z,9.10
2023-03-25T05:46:36.011Z,10.20
2023-03-25T05:51:37.791Z,9.30
2023-03-25T05:54:11.845Z,9.20
2023-03-25T05:56:40.118Z,9.20
2023-03-25T05:59:08.335Z,9.60
2023-03-25T06:01:39.357Z,9.80
2023-03-25T06:04:10.158Z,9.30
2023-03-25T06:06:38.032Z,9.70
2023-03-25T06:09:06.178Z,9.50
2023-03-25T06:11:40.239Z,9.10
2023-03-25T06:14:08.178Z,9.60
2023-03-25T06:16:36.116Z,9.70
2023-03-25T06:19:04.024Z,9.40
2023-03-25T06:21:34.976Z,10.30
2023-03-25T06:24:02.921Z,9.40
2023-03-25T06:26:32.672Z,9.80
2023-03-25T06:29:02.635Z,9.60
2023-03-25T06:31:34.242Z,9.50
2023-03-25T06:34:02.480Z,9.60
2023-03-25T06:36:29.958Z,9.50
2023-03-25T06:41:26.118Z,9.60
2023-03-25T06:44:13.776Z,9.70
2023-03-25T06:46:44.230Z,9.70
2023-03-25T06:49:16.133Z,9.60
2023-03-25T06:51:43.661Z,9.70
2023-03-25T06:54:11.054Z,9.90
2023-03-25T06:59:06.418Z,9.80
2023-03-25T07:01:33.720Z,9.70
2023-03-25T07:04:01.153Z,9.80
2023-03-25T07:06:28.498Z,9.80
2023-03-25T07:08:55.878Z,9.80
2023-03-25T07:11:27.394Z,9.90
2023-03-25T07:13:55.313Z,9.80
2023-03-25T07:18:51.594Z,9.90
2023-03-25T07:21:19.252Z,9.80
2023-03-25T07:23:46.638Z,10.10
2023-03-25T07:26:13.906Z,9.60
2023-03-25T07:28:41.604Z,9.60
2023-03-25T07:31:12.938Z,10.10
2023-03-25T07:36:11.890Z,9.60
2023-03-25T07:38:39.279Z,9.50
2023-03-25T07:41:08.157Z,9.60
2023-03-25T07:43:35.713Z,9.60
2023-03-25T07:46:22.866Z,9.60
2023-03-25T07:48:51.556Z,9.80
2023-03-25T07:51:18.891Z,10.30
2023-03-25T07:53:46.856Z,9.90
2023-03-25T07:56:15.540Z,9.60
2023-03-25T07:58:44.442Z,9.60
2023-03-25T08:03:41.349Z,9.80
2023-03-25T08:06:09.379Z,10.80
2023-03-25T08:08:37.036Z,9.90
2023-03-25T08:16:00.356Z,10.20
2023-03-25T08:18:27.786Z,10.40
2023-03-25T08:20:55.755Z,10.50
2023-03-25T08:23:23.530Z,10.20
2023-03-25T08:25:51.843Z,10.40
2023-03-25T08:28:25.890Z,10.50
2023-03-25T08:30:55.388Z,10.70
2023-03-25T08:33:27.335Z,10.50
2023-03-25T08:36:01.681Z,10.40
2023-03-25T08:38:34.654Z,10.70
2023-03-25T08:41:03.471Z,10.30
2023-03-25T08:43:31.041Z,10.60
2023-03-25T08:45:58.625Z,10.60
2023-03-25T08:48:28.631Z,10.70
2023-03-25T08:50:56.427Z,10.70
2023-03-25T08:53:24.152Z,10.70
2023-03-25T08:56:20.457Z,10.70
2023-03-25T08:58:48.130Z,10.80
2023-03-25T09:01:15.956Z,10.90
2023-03-25T09:03:46.816Z,10.70
2023-03-25T09:06:14.618Z,10.60
2023-03-25T09:08:42.191Z,10.70
2023-03-25T09:11:09.720Z,10.70
2023-03-25T09:13:37.112Z,10.80
2023-03-25T09:16:06.660Z,10.90
2023-03-25T09:18:41.932Z,11.00
2023-03-25T09:21:12.163Z,11.10
2023-03-25T09:23:42.257Z,11.20
2023-03-25T09:26:09.859Z,11.30
2023-03-25T09:28:39.582Z,11.60
2023-03-25T09:31:11.635Z,11.60
2023-03-25T09:33:47.632Z,11.50
2023-03-25T09:36:21.631Z,11.60
2023-03-25T09:38:54.083Z,11.60
2023-03-25T09:41:42.528Z,12.00
2023-03-25T09:44:12.857Z,11.60
2023-03-25T09:46:44.403Z,11.80
2023-03-25T09:49:19.830Z,11.90
2023-03-25T09:51:51.034Z,12.10
2023-03-25T09:54:30.592Z,11.90
2023-03-25T09:57:03.092Z,12.00
2023-03-25T10:00:17.458Z,12.10
2023-03-25T10:02:54.373Z,12.40
2023-03-25T10:05:45.278Z,12.10
2023-03-25T10:08:57.425Z,12.30
2023-03-25T10:11:42.688Z,12.20
2023-03-25T10:14:43.483Z,12.20
2023-03-25T10:18:15.507Z,12.20
2023-03-25T10:21:38.974Z,12.40
2023-03-25T10:24:46.565Z,12.50
2023-03-25T10:27:46.143Z,12.90
2023-03-25T10:30:45.790Z,12.70
2023-03-25T10:42:26.940Z,12.60
2023-03-25T10:43:39.171Z,12.60
2023-03-25T10:46:51.479Z,12.60
2023-03-25T10:52:15.930Z,12.50
2023-03-25T10:55:06.643Z,12.70
2023-03-25T10:57:34.732Z,13.30
2023-03-25T11:00:47.713Z,13.10
2023-03-25T11:08:24.605Z,13.10
2023-03-25T11:11:22.340Z,13.20
2023-03-25T11:14:50.605Z,13.40
2023-03-25T11:17:21.797Z,14.70
2023-03-25T11:20:37.964Z,13.60
2023-03-25T11:26:54.359Z,13.20
2023-03-25T11:29:33.241Z,13.10
2023-03-25T11:32:25.749Z,13.20
2023-03-25T11:34:58.741Z,13.20
2023-03-25T11:37:38.647Z,13.20
2023-03-25T11:40:18.752Z,13.20
2023-03-25T11:43:22.041Z,13.40
2023-03-25T11:45:54.218Z,13.40
2023-03-25T11:54:30.422Z,13.20
2023-03-25T11:57:40.725Z,13.30
2023-03-25T12:03:31.425Z,13.70
2023-03-25T12:06:05.488Z,13.70
2023-03-25T12:08:52.245Z,13.70
2023-03-25T12:12:04.019Z,13.50
2023-03-25T12:15:24.646Z,13.50
2023-03-25T12:18:02.047Z,13.60
2023-03-25T12:21:02.588Z,13.60
2023-03-25T12:23:41.371Z,12.20
2023-03-25T12:26:34.610Z,13.60
2023-03-25T12:29:20.868Z,13.80
2023-03-25T12:32:34.720Z,13.80
2023-03-25T12:35:28.445Z,13.90
2023-03-25T12:38:14.980Z,14.30
2023-03-25T12:40:45.876Z,14.10
2023-03-25T12:43:46.189Z,13.90
2023-03-25T12:47:00.618Z,13.90
2023-03-25T12:49:56.063Z,14.20
2023-03-25T12:52:29.273Z,15.10
2023-03-25T12:55:02.606Z,15.00
2023-03-25T12:58:05.304Z,15.40
2023-03-25T13:00:51.390Z,15.50
2023-03-25T13:03:25.150Z,15.70
2023-03-25T13:06:09.596Z,15.50
2023-03-25T13:08:48.180Z,15.80
2023-03-25T13:11:21.280Z,16.30
2023-03-25T13:13:51.428Z,16.40
2023-03-25T13:16:23.749Z,16.70
2023-03-25T13:19:15.318Z,16.90
2023-03-25T13:21:50.660Z,16.20
2023-03-25T13:24:38.743Z,16.10
2023-03-25T13:27:08.559Z,16.20
2023-03-25T13:29:47.578Z,16.50
2023-03-25T13:32:29.350Z,16.90
2023-03-25T13:35:09.157Z,16.70
2023-03-25T13:37:45.109Z,16.80
2023-03-25T13:40:31.771Z,16.60
2023-03-25T13:43:15.718Z,16.70
2023-03-25T13:45:56.207Z,16.80
2023-03-25T13:48:30.465Z,17.10
2023-03-25T13:51:03.354Z,17.30
2023-03-25T13:53:57.741Z,17.60
2023-03-25T13:56:31.754Z,17.80
2023-03-25T13:59:11.243Z,17.60
2023-03-25T14:01:44.123Z,17.80
2023-03-25T14:04:51.300Z,17.50
2023-03-25T14:07:34.244Z,16.80
2023-03-25T14:10:13.542Z,16.40
2023-03-25T14:12:52.507Z,17.40
2023-03-25T14:15:24.906Z,17.20
2023-03-25T14:17:54.384Z,17.20
2023-03-25T14:20:27.155Z,17.40
2023-03-25T14:23:01.970Z,17.50
2023-03-25T14:25:45.127Z,17.60
2023-03-25T14:28:19.661Z,17.70
2023-03-25T14:31:10.884Z,17.80
2023-03-25T14:34:12.703Z,17.50
2023-03-25T14:36:40.165Z,16.80
2023-03-25T14:39:29.616Z,17.00
2023-03-25T14:42:09.852Z,16.60
2023-03-25T14:44:41.677Z,16.40
2023-03-25T14:47:21.086Z,16.70
2023-03-25T14:50:16.692Z,16.20
2023-03-25T14:52:46.110Z,16.30
2023-03-25T14:55:47.326Z,16.50
2023-03-25T14:58:29.124Z,16.50
2023-03-25T15:01:04.954Z,16.90
2023-03-25T15:03:44.028Z,16.80
2023-03-25T15:06:28.749Z,17.10
2023-03-25T15:08:59.933Z,17.20
2023-03-25T15:11:36.394Z,17.20
2023-03-25T15:14:07.839Z,17.30
2023-03-25T15:16:47.594Z,17.50
2023-03-25T15:19:19.865Z,17.00
2023-03-25T15:22:08.414Z,16.70
2023-03-25T15:24:43.133Z,16.60
2023-03-25T15:27:28.103Z,16.20
2023-03-25T15:30:29.294Z,16.00
2023-03-25T15:33:33.981Z,15.80
2023-03-25T15:36:30.119Z,15.60
2023-03-25T15:39:16.656Z,15.60
2023-03-25T15:42:02.646Z,15.90
2023-03-25T15:44:45.116Z,15.50
2023-03-25T15:47:42.052Z,15.30
2023-03-25T15:50:21.464Z,15.50
2023-03-25T15:53:41.444Z,15.30
2023-03-25T15:56:28.804Z,15.20
2023-03-25T15:59:14.862Z,15.30
2023-03-25T16:01:49.447Z,15.40
2023-03-25T16:04:46.279Z,15.20
2023-03-25T16:07:16.808Z,15.20
2023-03-25T16:09:50.468Z,15.00
2023-03-25T16:12:24.324Z,14.90
2023-03-25T16:14:56.325Z,15.00
2023-03-25T16:17:33.513Z,14.70
2023-03-25T16:20:01.541Z,14.90
2023-03-25T16:22:43.068Z,14.60
2023-03-25T16:25:21.555Z,14.70
2023-03-25T16:28:12.733Z,14.60
2023-03-25T16:30:48.828Z,14.60
2023-03-25T16:33:21.756Z,14.50
2023-03-25T16:36:32.939Z,14.40
2023-03-25T16:39:01.275Z,14.40
2023-03-25T16:41:30.824Z,14.40
2023-03-25T16:44:09.273Z,14.50
2023-03-25T16:56:50.070Z,14.30
2023-03-25T16:59:27.030Z,14.20
2023-03-25T17:02:02.750Z,14.20
2023-03-25T17:04:42.562Z,14.00
2023-03-25T17:07:25.635Z,13.90
2023-03-25T17:10:08.134Z,14.00
2023-03-25T17:13:34.491Z,13.70
2023-03-25T17:16:05.441Z,13.50
2023-03-25T17:18:41.923Z,13.50
2023-03-25T17:21:15.385Z,13.50
2023-03-25T17:23:52.006Z,13.50
2023-03-25T17:26:28.196Z,13.50
2023-03-25T17:29:38.254Z,13.50
2023-03-25T17:32:22.881Z,13.40
2023-03-25T17:35:46.912Z,13.40
2023-03-25T17:38:26.573Z,13.40
2023-03-25T17:41:05.243Z,13.30
2023-03-25T17:43:37.107Z,13.00
2023-03-25T17:46:09.762Z,13.40
2023-03-25T17:48:41.147Z,13.50
2023-03-25T17:51:13.071Z,13.10
2023-03-25T17:53:40.421Z,13.20
2023-03-25T17:56:10.080Z,13.10
2023-03-25T17:58:37.578Z,13.10
2023-03-25T18:01:05.509Z,13.10
2023-03-25T18:03:35.255Z,13.00
2023-03-25T18:06:02.762Z,13.00
2023-03-25T18:08:30.447Z,13.10
2023-03-25T18:10:59.053Z,13.00
2023-03-25T18:13:27.971Z,12.90
2023-03-25T18:16:00.347Z,12.80
2023-03-25T18:21:03.863Z,12.70
2023-03-25T18:23:32.078Z,12.70
2023-03-25T18:26:00.459Z,12.90
2023-03-25T18:28:28.349Z,12.60
2023-03-25T18:31:00.255Z,13.10
2023-03-25T18:33:28.759Z,12.70
2023-03-25T18:35:59.636Z,12.60
2023-03-25T18:38:31.105Z,12.70
2023-03-25T18:40:58.777Z,12.70
2023-03-25T18:43:26.395Z,12.40
2023-03-25T18:45:54.275Z,12.30
2023-03-25T18:48:22.812Z,12.30
2023-03-25T18:51:00.848Z,12.10
2023-03-25T18:53:30.014Z,12.10
2023-03-25T18:56:00.997Z,12.10
2023-03-25T18:58:31.315Z,12.10
2023-03-25T19:01:07.855Z,12.00
2023-03-25T19:03:41.486Z,11.90
2023-03-25T19:06:12.026Z,12.10
2023-03-25T19:08:41.805Z,12.00
2023-03-25T19:11:21.080Z,11.70
2023-03-25T19:13:51.450Z,11.90
2023-03-25T19:16:20.351Z,11.90
2023-03-25T19:18:51.490Z,11.90
2023-03-25T19:21:21.646Z,12.00
2023-03-25T19:23:52.629Z,11.90
2023-03-25T19:26:28.905Z,12.10
2023-03-25T19:28:56.390Z,11.90
2023-03-25T19:31:25.453Z,11.90
2023-03-25T19:33:53.064Z,11.80
2023-03-25T19:36:23.272Z,11.80
2023-03-25T19:38:53.253Z,11.90
2023-03-25T19:41:20.937Z,11.60
2023-03-25T19:43:48.376Z,11.70
2023-03-25T19:48:44.174Z,11.60
2023-03-25T19:51:11.620Z,11.60
2023-03-25T19:53:39.674Z,11.50
2023-03-25T19:56:07.959Z,11.50
2023-03-25T19:58:37.953Z,11.50
2023-03-25T20:01:06.596Z,11.40
2023-03-25T20:03:36.364Z,11.40
2023-03-25T20:06:06.486Z,11.30
2023-03-25T20:08:36.421Z,11.40
2023-03-25T20:11:14.000Z,11.40
2023-03-25T20:13:41.491Z,11.40
2023-03-25T20:16:13.232Z,11.40
2023-03-25T20:18:41.618Z,11.40
2023-03-25T20:21:09.878Z,11.50
2023-03-25T20:23:38.563Z,11.40
2023-03-25T20:26:06.300Z,12.20
2023-03-25T20:28:33.833Z,11.30
2023-03-25T20:31:21.371Z,11.30
2023-03-25T20:33:50.374Z,11.30
2023-03-25T20:36:19.237Z,11.40
2023-03-25T20:38:56.659Z,11.30
2023-03-25T20:41:26.356Z,11.40
2023-03-25T20:46:25.291Z,11.30
2023-03-25T20:48:53.215Z,11.50
2023-03-25T20:51:21.012Z,11.30
2023-03-25T20:53:48.614Z,11.30
2023-03-25T20:56:16.443Z,11.20
2023-03-25T20:58:44.102Z,11.50
2023-03-25T21:01:15.652Z,11.70
2023-03-25T21:03:43.189Z,11.10
2023-03-25T21:06:20.999Z,11.20
2023-03-25T21:08:51.367Z,10.90
2023-03-25T21:11:19.003Z,11.10
2023-03-25T21:13:46.574Z,11.00
2023-03-25T21:16:14.398Z,11.40
2023-03-25T21:18:42.732Z,11.10
2023-03-25T21:21:10.725Z,11.10
2023-03-25T21:23:42.969Z,11.00
2023-03-25T21:26:10.755Z,11.00
2023-03-25T21:28:38.760Z,11.00
2023-03-25T21:31:14.300Z,11.00
2023-03-25T21:33:41.782Z,11.00
2023-03-25T21:36:09.524Z,11.00
2023-03-25T21:38:37.348Z,10.90
2023-03-25T21:41:06.979Z,11.10
2023-03-25T21:43:35.918Z,11.20
2023-03-25T21:46:06.263Z,10.80
2023-03-25T21:48:38.121Z,10.80
2023-03-25T21:51:11.897Z,10.80
2023-03-25T21:53:46.274Z,10.70
2023-03-25T21:56:17.309Z,10.70
2023-03-25T21:58:45.630Z,11.10
2023-03-25T22:01:15.844Z,10.70
2023-03-25T22:03:46.808Z,10.70
2023-03-25T22:06:16.879Z,10.60
2023-03-25T22:08:44.969Z,11.80
2023-03-25T22:11:18.088Z,11.00
2023-03-25T22:13:46.452Z,10.60
2023-03-25T22:16:15.660Z,10.60
2023-03-25T22:18:44.030Z,10.60
2023-03-25T22:21:17.258Z,10.60
2023-03-25T22:23:46.862Z,10.60
2023-03-25T22:26:16.620Z,10.50
2023-03-25T22:28:44.544Z,10.40
2023-03-25T22:31:18.294Z,10.40
2023-03-25T22:33:46.653Z,10.40
2023-03-25T22:36:16.333Z,10.40
2023-03-25T22:38:47.812Z,10.50
2023-03-25T22:41:16.646Z,10.30
2023-03-25T22:43:46.968Z,10.50
2023-03-25T22:46:15.387Z,10.00
2023-03-25T22:48:42.905Z,10.50
2023-03-25T22:51:16.193Z,10.20
2023-03-25T22:53:44.003Z,10.40
2023-03-25T22:56:11.836Z,10.30
2023-03-25T22:58:40.092Z,10.30
2023-03-25T23:01:18.586Z,10.20
2023-03-25T23:03:46.155Z,10.40
2023-03-25T23:08:42.896Z,10.10
2023-03-25T23:11:16.868Z,10.10
2023-03-25T23:13:48.409Z,10.10
2023-03-25T23:16:18.892Z,10.20
2023-03-25T23:18:54.784Z,10.30
2023-03-25T23:21:25.523Z,10.10
2023-03-25T23:23:54.983Z,10.00
2023-03-25T23:26:26.336Z,9.60
2023-03-25T23:28:57.042Z,9.90
2023-03-25T23:31:28.244Z,10.10
2023-03-25T23:33:58.707Z,9.90
2023-03-25T23:36:28.580Z,9.90
2023-03-25T23:38:55.979Z,9.80
2023-03-25T23:41:23.642Z,9.80
2023-03-25T23:43:52.657Z,9.80
2023-03-25T23:46:21.843Z,9.70
2023-03-25T23:48:49.925Z,10.80
2023-03-25T23:51:20.349Z,9.90
2023-03-25T23:53:49.835Z,9.70
2023-03-25T23:56:19.512Z,10.20
2023-03-25T23:58:46.833Z,9.80
